createdAt,value
2017-11-06T00:02:15.810Z,15.32
2017-11-06T00:04:43.339Z,18.02
2017-11-06T00:07:10.776Z,15.15
2017-11-06T00:09:38.228Z,13.82
2017-11-06T00:12:05.671Z,15.93
2017-11-06T00:14:33.180Z,15.27
2017-11-06T00:17:00.626Z,14.87
2017-11-06T00:19:28.073Z,17.92
2017-11-06T00:21:55.536Z,17.48
2017-11-06T00:24:23.087Z,15.02
2017-11-06T00:26:50.693Z,16.05
2017-11-06T00:29:18.130Z,14.57
2017-11-06T00:31:45.577Z,16.75
2017-11-06T00:34:13.024Z,18.27
2017-11-06T00:36:40.467Z,15.70
2017-11-06T00:39:07.934Z,15.48
2017-11-06T00:41:35.359Z,16.73
2017-11-06T00:44:02.804Z,16.15
2017-11-06T00:46:30.228Z,15.02
2017-11-06T00:48:57.664Z,16.48
2017-11-06T00:51:25.140Z,16.62
2017-11-06T00:53:52.606Z,19.17
2017-11-06T00:56:20.041Z,15.82
2017-11-06T00:58:47.505Z,15.25
2017-11-06T01:01:14.946Z,20.05
2017-11-06T01:03:42.429Z,15.55
2017-11-06T01:06:09.855Z,15.63
2017-11-06T01:08:38.079Z,15.57
2017-11-06T01:11:05.588Z,14.45
2017-11-06T01:13:33.015Z,16.25
2017-11-06T01:16:00.511Z,16.40
2017-11-06T01:18:27.987Z,16.62
2017-11-06T01:20:56.202Z,20.75
2017-11-06T01:23:23.636Z,18.70
2017-11-06T01:25:51.080Z,15.55
2017-11-06T01:28:18.529Z,16.20
2017-11-06T01:30:46.020Z,18.27
2017-11-06T01:33:13.585Z,19.45
2017-11-06T01:35:41.019Z,18.10
2017-11-06T01:38:08.534Z,21.12
2017-11-06T01:40:36.024Z,16.15
2017-11-06T01:43:03.472Z,20.77
2017-11-06T01:45:30.914Z,17.98
2017-11-06T01:47:58.349Z,22.87
2017-11-06T01:50:25.799Z,21.67
2017-11-06T01:52:53.219Z,18.02
2017-11-06T01:55:20.653Z,17.65
2017-11-06T01:57:48.920Z,16.08
2017-11-06T02:00:16.809Z,19.42
2017-11-06T02:02:44.236Z,19.08
2017-11-06T02:05:11.728Z,19.85
2017-11-06T02:07:39.165Z,18.37
2017-11-06T02:10:06.607Z,16.17
2017-11-06T02:12:34.050Z,19.70
2017-11-06T02:15:01.492Z,17.52
2017-11-06T02:17:28.931Z,16.52
2017-11-06T02:19:56.372Z,17.37
2017-11-06T02:22:23.803Z,16.42
2017-11-06T02:24:51.258Z,18.17
2017-11-06T02:27:18.697Z,18.58
2017-11-06T02:29:46.243Z,23.62
2017-11-06T02:32:13.671Z,21.58
2017-11-06T02:34:41.111Z,16.75
2017-11-06T02:37:08.585Z,20.00
2017-11-06T02:39:36.121Z,18.70
2017-11-06T02:42:03.564Z,19.42
2017-11-06T02:44:31.108Z,18.83
2017-11-06T02:46:58.565Z,21.30
2017-11-06T02:49:26.006Z,23.05
2017-11-06T02:51:53.539Z,20.70
2017-11-06T02:54:21.170Z,21.25
2017-11-06T02:56:48.616Z,19.52
2017-11-06T02:59:16.048Z,20.10
2017-11-06T03:01:43.485Z,20.48
2017-11-06T03:04:10.917Z,18.73
2017-11-06T03:06:38.339Z,21.62
2017-11-06T03:09:06.581Z,23.58
2017-11-06T03:11:34.019Z,22.15
2017-11-06T03:14:01.564Z,21.40
2017-11-06T03:16:29.004Z,20.50
2017-11-06T03:18:56.449Z,20.23
2017-11-06T03:21:23.900Z,20.65
2017-11-06T03:23:52.883Z,20.60
2017-11-06T03:26:20.321Z,23.67
2017-11-06T03:28:48.581Z,21.52
2017-11-06T03:31:16.024Z,20.12
2017-11-06T03:33:43.457Z,20.50
2017-11-06T03:36:10.896Z,18.35
2017-11-06T03:38:38.351Z,21.75
2017-11-06T03:41:05.796Z,22.60
2017-11-06T03:43:33.228Z,19.25
2017-11-06T03:46:00.671Z,21.05
2017-11-06T03:48:28.104Z,26.77
2017-11-06T03:50:55.571Z,26.08
2017-11-06T03:53:22.996Z,24.75
2017-11-06T03:55:50.449Z,20.05
2017-11-06T03:58:18.693Z,20.95
2017-11-06T04:00:46.124Z,25.85
2017-11-06T04:03:13.561Z,19.02
2017-11-06T04:05:40.987Z,23.98
2017-11-06T04:08:08.452Z,22.35
2017-11-06T04:10:35.888Z,22.05
2017-11-06T04:13:03.445Z,24.12
2017-11-06T04:15:30.878Z,22.92
2017-11-06T04:17:58.332Z,27.33
2017-11-06T04:20:25.760Z,23.02
2017-11-06T04:22:53.217Z,23.08
2017-11-06T04:25:20.767Z,22.40
2017-11-06T04:27:48.305Z,22.70
2017-11-06T04:30:15.754Z,24.55
2017-11-06T04:32:43.220Z,25.40
2017-11-06T04:35:11.424Z,24.65
2017-11-06T04:37:38.908Z,21.80
2017-11-06T04:40:06.340Z,22.40
2017-11-06T04:42:33.770Z,21.98
2017-11-06T04:45:01.225Z,24.92
2017-11-06T04:47:28.664Z,24.85
2017-11-06T04:49:56.100Z,23.67
2017-11-06T04:52:23.547Z,20.80
2017-11-06T04:54:51.252Z,24.70
2017-11-06T04:57:18.690Z,23.98
2017-11-06T04:59:46.152Z,23.83
2017-11-06T05:02:13.596Z,24.40
2017-11-06T05:04:41.123Z,23.45
2017-11-06T05:07:08.611Z,22.37
2017-11-06T05:09:36.335Z,29.25
2017-11-06T05:12:03.768Z,26.35
2017-11-06T05:14:31.696Z,26.98
2017-11-06T05:16:59.903Z,28.48
2017-11-06T05:19:27.335Z,27.48
2017-11-06T05:21:54.806Z,25.90
2017-11-06T05:24:22.369Z,25.37
2017-11-06T05:26:49.805Z,29.80
2017-11-06T05:29:17.233Z,27.75
2017-11-06T05:31:44.704Z,24.87
2017-11-06T05:34:12.243Z,26.27
2017-11-06T05:36:39.687Z,28.10
2017-11-06T05:39:07.164Z,23.35
2017-11-06T05:41:35.365Z,25.73
2017-11-06T05:44:02.800Z,28.95
2017-11-06T05:46:30.259Z,26.05
2017-11-06T05:48:57.748Z,29.45
2017-11-06T05:51:25.951Z,30.42
2017-11-06T05:53:53.419Z,27.25
2017-11-06T05:56:20.973Z,34.40
2017-11-06T05:58:48.421Z,26.75
2017-11-06T06:01:15.939Z,28.75
2017-11-06T06:03:43.403Z,29.52
2017-11-06T06:06:10.831Z,31.58
2017-11-06T06:08:38.292Z,29.37
2017-11-06T06:11:05.825Z,30.75
2017-11-06T06:13:33.365Z,28.85
2017-11-06T06:16:00.882Z,31.05
2017-11-06T06:18:28.534Z,33.67
2017-11-06T06:20:55.980Z,29.37
2017-11-06T06:23:23.448Z,27.73
2017-11-06T06:25:50.885Z,28.48
2017-11-06T06:28:18.319Z,31.25
2017-11-06T06:30:45.764Z,28.40
2017-11-06T06:33:13.252Z,29.70
2017-11-06T06:35:41.499Z,32.10
2017-11-06T06:38:09.717Z,33.30
2017-11-06T06:40:37.145Z,32.38
2017-11-06T06:43:04.610Z,29.85
2017-11-06T06:45:32.097Z,31.67
2017-11-06T06:47:59.622Z,35.13
2017-11-06T06:50:27.057Z,32.80
2017-11-06T06:52:54.508Z,43.05
2017-11-06T06:55:21.944Z,34.28
2017-11-06T06:57:49.381Z,37.92
2017-11-06T07:00:16.926Z,33.40
2017-11-06T07:02:44.416Z,31.70
2017-11-06T07:05:12.642Z,37.22
2017-11-06T07:07:40.123Z,33.22
2017-11-06T07:10:08.372Z,34.05
2017-11-06T07:12:36.563Z,49.10
2017-11-06T07:15:04.129Z,36.80
2017-11-06T07:17:31.564Z,34.03
2017-11-06T07:19:59.041Z,39.00
2017-11-06T07:22:26.487Z,34.67
2017-11-06T07:24:53.917Z,30.52
2017-11-06T07:27:21.372Z,31.85
2017-11-06T07:29:48.827Z,32.72
2017-11-06T07:32:16.269Z,30.48
2017-11-06T07:34:43.799Z,35.83
2017-11-06T07:37:11.231Z,32.42
2017-11-06T07:39:38.680Z,28.25
2017-11-06T07:42:06.116Z,30.60
2017-11-06T07:44:33.556Z,34.50
2017-11-06T07:47:00.983Z,32.63
2017-11-06T07:49:28.434Z,33.00
2017-11-06T07:51:55.888Z,31.05
2017-11-06T07:54:23.344Z,31.92
2017-11-06T07:56:50.802Z,30.88
2017-11-06T07:59:18.244Z,32.97
2017-11-06T08:01:45.677Z,32.33
2017-11-06T08:04:13.117Z,33.25
2017-11-06T08:06:42.055Z,33.60
2017-11-06T08:09:09.493Z,31.37
2017-11-06T08:11:36.928Z,34.05
2017-11-06T08:14:04.412Z,32.38
2017-11-06T08:16:41.167Z,27.42
2017-11-06T08:19:08.608Z,29.48
2017-11-06T08:21:36.073Z,33.85
2017-11-06T08:24:03.575Z,32.47
2017-11-06T08:26:31.008Z,62.78
2017-11-06T08:28:58.516Z,42.58
2017-11-06T08:31:26.712Z,30.75
2017-11-06T08:33:54.224Z,36.55
2017-11-06T08:36:22.427Z,34.95
2017-11-06T08:38:49.863Z,33.53
2017-11-06T08:41:17.317Z,34.13
2017-11-06T08:43:44.834Z,30.83
2017-11-06T08:46:12.284Z,36.80
2017-11-06T08:48:39.760Z,32.83
2017-11-06T08:51:07.200Z,31.98
2017-11-06T08:53:34.730Z,34.90
2017-11-06T08:56:02.200Z,28.98
2017-11-06T08:58:29.742Z,31.40
2017-11-06T09:00:57.173Z,32.15
2017-11-06T09:03:24.633Z,28.15
2017-11-06T09:05:52.070Z,31.33
2017-11-06T09:08:19.671Z,29.10
2017-11-06T09:10:47.114Z,31.20
2017-11-06T09:13:14.595Z,28.50
2017-11-06T09:15:42.043Z,35.97
2017-11-06T09:18:09.575Z,28.30
2017-11-06T09:20:37.010Z,37.90
2017-11-06T09:23:04.490Z,32.05
2017-11-06T09:25:31.915Z,33.58
2017-11-06T09:27:59.356Z,32.15
2017-11-06T09:30:26.937Z,30.70
2017-11-06T09:32:54.377Z,25.65
2017-11-06T09:35:21.829Z,33.28
2017-11-06T09:37:49.372Z,28.27
2017-11-06T09:40:17.632Z,32.70
2017-11-06T09:42:45.093Z,28.42
2017-11-06T09:45:13.309Z,30.60
2017-11-06T09:47:40.748Z,27.42
2017-11-06T09:50:08.228Z,26.60
2017-11-06T09:52:35.688Z,25.30
2017-11-06T09:55:03.888Z,26.48
2017-11-06T09:57:31.368Z,29.15
2017-11-06T09:59:58.899Z,25.73
2017-11-06T10:02:26.352Z,26.77
2017-11-06T10:04:53.791Z,32.78
2017-11-06T10:07:21.226Z,27.40
2017-11-06T10:09:48.686Z,28.25
2017-11-06T10:12:16.220Z,21.52
2017-11-06T10:14:43.772Z,24.83
2017-11-06T10:17:11.201Z,23.12
2017-11-06T10:19:39.628Z,26.48
2017-11-06T10:22:07.076Z,26.10
2017-11-06T10:24:34.507Z,25.27
2017-11-06T10:27:01.948Z,21.08
2017-11-06T10:29:29.544Z,28.08
2017-11-06T10:31:56.981Z,25.02
2017-11-06T10:34:24.408Z,22.77
2017-11-06T10:36:51.927Z,22.45
2017-11-06T10:39:20.139Z,27.75
2017-11-06T10:41:49.100Z,19.67
2017-11-06T10:44:16.543Z,25.12
2017-11-06T10:46:43.980Z,24.27
2017-11-06T10:49:11.467Z,22.33
2017-11-06T10:51:38.987Z,20.65
2017-11-06T10:54:06.448Z,18.85
2017-11-06T10:56:34.248Z,22.25
2017-11-06T10:59:01.740Z,21.27
2017-11-06T11:01:29.250Z,20.33
2017-11-06T11:03:56.755Z,22.08
2017-11-06T11:06:24.945Z,18.87
2017-11-06T11:08:52.436Z,18.25
2017-11-06T11:11:20.647Z,21.67
2017-11-06T11:13:48.080Z,21.52
2017-11-06T11:16:15.520Z,25.85
2017-11-06T11:18:42.945Z,23.05
2017-11-06T11:21:10.425Z,23.50
2017-11-06T11:23:37.909Z,21.87
2017-11-06T11:26:05.349Z,19.45
2017-11-06T11:28:32.839Z,18.65
2017-11-06T11:31:00.322Z,19.52
2017-11-06T11:33:27.771Z,16.73
2017-11-06T11:35:55.200Z,18.10
2017-11-06T11:38:22.649Z,17.15
2017-11-06T11:40:50.096Z,18.67
2017-11-06T11:43:17.576Z,17.85
2017-11-06T11:45:45.085Z,18.05
2017-11-06T11:48:13.279Z,20.48
2017-11-06T11:50:40.781Z,18.37
2017-11-06T11:53:08.320Z,21.92
2017-11-06T11:55:35.879Z,19.70
2017-11-06T11:58:03.313Z,19.27
2017-11-06T12:00:30.751Z,15.77
2017-11-06T12:02:58.285Z,19.20
2017-11-06T12:05:25.733Z,18.70
2017-11-06T12:07:53.172Z,19.50
2017-11-06T12:10:20.632Z,20.45
2017-11-06T12:12:48.072Z,18.95
2017-11-06T12:15:15.513Z,18.62
2017-11-06T12:17:42.960Z,15.95
2017-11-06T12:20:10.441Z,18.55
2017-11-06T12:22:37.951Z,17.90
2017-11-06T12:25:05.427Z,16.25
2017-11-06T12:27:33.663Z,20.25
2017-11-06T12:30:01.100Z,17.75
2017-11-06T12:32:28.552Z,18.83
2017-11-06T12:34:56.018Z,14.23
2017-11-06T12:37:24.348Z,18.15
2017-11-06T12:39:51.768Z,17.02
2017-11-06T12:42:19.400Z,15.32
2017-11-06T12:44:46.840Z,15.20
2017-11-06T12:47:14.269Z,13.85
2017-11-06T12:49:41.880Z,16.52
2017-11-06T12:52:10.148Z,14.80
2017-11-06T12:54:37.616Z,18.73
2017-11-06T12:57:05.121Z,14.48
2017-11-06T12:59:32.552Z,16.55
2017-11-06T13:02:00.008Z,16.65
2017-11-06T13:04:27.548Z,16.35
2017-11-06T13:06:54.992Z,13.15
2017-11-06T13:09:22.436Z,15.20
2017-11-06T13:11:49.876Z,19.48
2017-11-06T13:14:17.321Z,16.02
2017-11-06T13:16:44.755Z,12.85
2017-11-06T13:19:12.315Z,20.60
2017-11-06T13:21:40.616Z,13.62
2017-11-06T13:24:08.066Z,14.95
2017-11-06T13:26:35.552Z,14.85
2017-11-06T13:29:02.988Z,13.85
2017-11-06T13:31:30.436Z,14.07
2017-11-06T13:33:57.947Z,14.80
2017-11-06T13:36:25.381Z,14.35
2017-11-06T13:38:53.275Z,14.87
2017-11-06T13:41:20.745Z,13.98
2017-11-06T13:43:48.270Z,14.40
2017-11-06T13:46:15.692Z,11.80
2017-11-06T13:48:43.128Z,12.90
2017-11-06T13:51:10.744Z,16.58
2017-11-06T13:53:38.237Z,14.70
2017-11-06T13:56:05.671Z,14.20
2017-11-06T13:58:33.185Z,13.73
2017-11-06T14:01:00.616Z,13.68
2017-11-06T14:03:28.072Z,14.15
2017-11-06T14:05:55.525Z,13.23
2017-11-06T14:08:22.952Z,18.92
2017-11-06T14:10:50.437Z,13.65
2017-11-06T14:13:17.876Z,13.25
2017-11-06T14:15:45.312Z,13.90
2017-11-06T14:18:12.756Z,14.98
2017-11-06T14:20:40.190Z,12.50
2017-11-06T14:23:07.745Z,15.20
2017-11-06T14:25:35.176Z,15.07
2017-11-06T14:28:02.613Z,12.90
2017-11-06T14:30:30.111Z,12.45
2017-11-06T14:32:58.750Z,12.75
2017-11-06T14:35:26.304Z,12.30
2017-11-06T14:37:53.765Z,12.65
2017-11-06T14:40:21.965Z,13.73
2017-11-06T14:42:49.443Z,13.68
2017-11-06T14:45:16.883Z,16.90
2017-11-06T14:47:44.323Z,15.75
2017-11-06T14:50:11.781Z,13.20
2017-11-06T14:52:39.215Z,15.45
2017-11-06T14:55:06.652Z,11.23
2017-11-06T14:57:34.095Z,16.85
2017-11-06T15:00:01.536Z,12.10
2017-11-06T15:02:28.963Z,10.95
2017-11-06T15:04:56.420Z,15.85
2017-11-06T15:07:23.856Z,13.00
2017-11-06T15:09:51.276Z,9.15
2017-11-06T15:12:18.715Z,13.48
2017-11-06T15:14:46.169Z,10.30
2017-11-06T15:17:13.596Z,10.40
2017-11-06T15:19:41.089Z,12.10
2017-11-06T15:22:08.552Z,10.25
2017-11-06T15:24:36.753Z,14.55
2017-11-06T15:27:04.194Z,13.23
2017-11-06T15:29:31.633Z,13.10
2017-11-06T15:31:59.125Z,12.65
2017-11-06T15:34:26.564Z,10.90
2017-11-06T15:36:54.180Z,11.25
2017-11-06T15:39:21.615Z,11.43
2017-11-06T15:41:49.036Z,12.82
2017-11-06T15:44:16.491Z,11.93
2017-11-06T15:46:43.976Z,12.50
2017-11-06T15:49:11.440Z,10.38
2017-11-06T15:51:39.672Z,12.48
2017-11-06T15:54:07.172Z,12.00
2017-11-06T15:56:34.635Z,12.93
2017-11-06T15:59:02.085Z,11.32
2017-11-06T16:01:29.517Z,14.43
2017-11-06T16:03:56.944Z,13.32
2017-11-06T16:06:24.428Z,16.25
2017-11-06T16:08:51.868Z,13.20
2017-11-06T16:11:19.323Z,17.65
2017-11-06T16:13:46.740Z,14.50
2017-11-06T16:16:14.233Z,16.67
2017-11-06T16:18:42.472Z,15.32
2017-11-06T16:21:10.042Z,17.83
2017-11-06T16:23:38.280Z,15.40
2017-11-06T16:26:05.734Z,16.55
2017-11-06T16:28:33.156Z,19.55
2017-11-06T16:31:00.608Z,20.98
2017-11-06T16:33:28.141Z,19.27
2017-11-06T16:35:55.596Z,18.55
2017-11-06T16:38:23.045Z,16.08
2017-11-06T16:40:51.300Z,19.50
2017-11-06T16:43:18.781Z,30.92
2017-11-06T16:45:46.960Z,21.12
2017-11-06T16:48:14.405Z,20.33
2017-11-06T16:50:41.883Z,18.12
2017-11-06T16:53:09.434Z,18.35
2017-11-06T16:55:36.884Z,21.37
2017-11-06T16:58:04.313Z,22.35
2017-11-06T17:00:31.751Z,18.77
2017-11-06T17:02:59.191Z,22.87
2017-11-06T17:05:26.664Z,24.67
2017-11-06T17:07:54.095Z,21.27
2017-11-06T17:10:21.872Z,20.37
2017-11-06T17:12:50.146Z,22.45
2017-11-06T17:15:17.592Z,19.92
2017-11-06T17:17:45.088Z,20.10
2017-11-06T17:20:12.648Z,25.17
2017-11-06T17:22:40.180Z,23.87
2017-11-06T17:25:07.631Z,19.58
2017-11-06T17:27:35.073Z,21.80
2017-11-06T17:30:02.619Z,21.62
2017-11-06T17:32:30.065Z,25.40
2017-11-06T17:34:57.491Z,22.45
2017-11-06T17:37:24.929Z,22.58
2017-11-06T17:39:52.493Z,21.20
2017-11-06T17:42:20.036Z,24.25
2017-11-06T17:44:47.468Z,23.85
2017-11-06T17:47:14.946Z,24.20
2017-11-06T17:49:43.192Z,26.45
2017-11-06T17:52:11.435Z,34.35
2017-11-06T17:54:38.876Z,24.58
2017-11-06T17:57:07.976Z,20.42
2017-11-06T17:59:36.188Z,19.60
2017-11-06T18:02:03.632Z,22.20
2017-11-06T18:04:31.087Z,25.15
2017-11-06T18:06:58.521Z,20.80
2017-11-06T18:09:25.965Z,24.73
2017-11-06T18:11:53.404Z,20.60
2017-11-06T18:14:20.964Z,20.45
2017-11-06T18:16:48.809Z,18.92
2017-11-06T18:19:16.280Z,20.23
2017-11-06T18:21:44.498Z,18.92
2017-11-06T18:24:11.925Z,23.42
2017-11-06T18:26:39.484Z,20.65
2017-11-06T18:29:06.929Z,25.30
2017-11-06T18:31:34.396Z,21.87
2017-11-06T18:34:01.825Z,21.20
2017-11-06T18:36:29.276Z,19.98
2017-11-06T18:38:57.541Z,22.00
2017-11-06T18:41:26.509Z,19.92
2017-11-06T18:43:53.945Z,21.33
2017-11-06T18:46:21.386Z,27.95
2017-11-06T18:48:48.824Z,24.10
2017-11-06T18:51:16.265Z,25.77
2017-11-06T18:53:43.729Z,22.87
2017-11-06T18:56:21.732Z,24.33
2017-11-06T18:58:49.965Z,24.95
2017-11-06T19:01:17.416Z,22.25
2017-11-06T19:03:44.876Z,28.85
2017-11-06T19:06:12.329Z,29.45
2017-11-06T19:08:39.811Z,32.55
2017-11-06T19:11:07.239Z,28.48
2017-11-06T19:13:34.690Z,27.92
2017-11-06T19:16:02.131Z,27.48
2017-11-06T19:18:29.616Z,25.45
2017-11-06T19:20:57.077Z,28.20
2017-11-06T19:23:24.514Z,25.25
2017-11-06T19:25:51.971Z,25.75
2017-11-06T19:28:19.471Z,25.45
2017-11-06T19:30:46.930Z,24.58
2017-11-06T19:33:14.400Z,24.35
2017-11-06T19:35:42.653Z,24.05
2017-11-06T19:38:10.081Z,24.10
2017-11-06T19:40:37.528Z,24.70
2017-11-06T19:43:04.996Z,30.67
2017-11-06T19:45:33.208Z,27.62
2017-11-06T19:48:00.688Z,27.55
2017-11-06T19:50:28.108Z,25.37
2017-11-06T19:52:55.596Z,35.42
2017-11-06T19:55:23.123Z,25.50
2017-11-06T19:57:52.385Z,34.22
2017-11-06T20:00:19.867Z,32.20
2017-11-06T20:02:47.296Z,22.13
2017-11-06T20:05:15.569Z,24.33
2017-11-06T20:07:43.795Z,25.27
2017-11-06T20:10:11.232Z,24.42
2017-11-06T20:12:38.671Z,27.58
2017-11-06T20:15:06.130Z,28.10
2017-11-06T20:17:33.561Z,23.38
2017-11-06T20:20:01.014Z,32.78
2017-11-06T20:22:28.443Z,28.90
2017-11-06T20:24:55.945Z,24.65
2017-11-06T20:27:24.170Z,29.70
2017-11-06T20:29:51.601Z,27.98
2017-11-06T20:32:19.046Z,31.55
2017-11-06T20:34:46.485Z,28.95
2017-11-06T20:37:13.926Z,27.60
2017-11-06T20:39:41.385Z,26.50
2017-11-06T20:42:08.984Z,28.90
2017-11-06T20:44:36.419Z,26.73
2017-11-06T20:47:04.892Z,37.60
2017-11-06T20:49:32.332Z,29.15
2017-11-06T20:51:59.823Z,30.45
2017-11-06T20:54:27.256Z,28.38
2017-11-06T20:56:54.705Z,26.60
2017-11-06T20:59:22.236Z,29.67
2017-11-06T21:01:49.719Z,27.45
2017-11-06T21:04:18.827Z,37.00
2017-11-06T21:06:46.261Z,31.85
2017-11-06T21:09:13.709Z,30.67
2017-11-06T21:11:41.251Z,30.30
2017-11-06T21:14:08.812Z,28.40
2017-11-06T21:16:36.289Z,30.37
2017-11-06T21:19:03.894Z,24.70
2017-11-06T21:21:31.334Z,30.12
2017-11-06T21:23:59.661Z,27.98
2017-11-06T21:26:27.865Z,28.20
2017-11-06T21:28:55.304Z,25.37
2017-11-06T21:31:22.752Z,27.65
2017-11-06T21:33:50.208Z,27.00
2017-11-06T21:36:17.673Z,29.48
2017-11-06T21:38:45.108Z,32.83
2017-11-06T21:41:12.592Z,26.80
2017-11-06T21:43:40.024Z,26.95
2017-11-06T21:46:08.234Z,32.28
2017-11-06T21:48:35.695Z,28.55
2017-11-06T21:51:03.146Z,30.83
2017-11-06T21:53:31.363Z,34.50
2017-11-06T21:55:58.801Z,26.08
2017-11-06T21:58:26.318Z,31.70
2017-11-06T22:00:54.512Z,31.02
2017-11-06T22:03:21.965Z,25.70
2017-11-06T22:05:49.376Z,42.40
2017-11-06T22:08:16.854Z,32.25
2017-11-06T22:10:44.292Z,31.08
2017-11-06T22:13:11.776Z,31.25
2017-11-06T22:15:39.219Z,28.12
2017-11-06T22:18:06.669Z,25.80
2017-11-06T22:20:34.117Z,26.40
2017-11-06T22:23:02.311Z,29.20
2017-11-06T22:25:29.808Z,29.55
2017-11-06T22:27:57.237Z,28.73
2017-11-06T22:30:24.780Z,31.73
2017-11-06T22:32:52.327Z,31.70
2017-11-06T22:35:19.768Z,30.48
2017-11-06T22:37:47.318Z,29.35
2017-11-06T22:40:14.752Z,28.25
2017-11-06T22:42:42.292Z,27.20
2017-11-06T22:45:09.728Z,28.85
2017-11-06T22:47:37.161Z,31.23
2017-11-06T22:50:04.617Z,26.33
2017-11-06T22:52:32.045Z,29.60
2017-11-06T22:54:59.493Z,28.00
2017-11-06T22:57:28.004Z,37.00
2017-11-06T22:59:56.220Z,30.48
2017-11-06T23:02:24.475Z,26.92
2017-11-06T23:04:51.917Z,32.00
2017-11-06T23:07:19.352Z,27.00
2017-11-06T23:09:46.836Z,38.13
2017-11-06T23:12:14.278Z,37.95
2017-11-06T23:14:41.729Z,33.13
2017-11-06T23:17:09.164Z,31.85
2017-11-06T23:19:36.594Z,37.58
2017-11-06T23:22:04.056Z,40.78
2017-11-06T23:24:31.492Z,37.15
2017-11-06T23:26:58.937Z,34.20
2017-11-06T23:29:26.377Z,34.10
2017-11-06T23:31:53.817Z,32.72
2017-11-06T23:34:21.260Z,32.15
2017-11-06T23:36:48.710Z,34.33
2017-11-06T23:39:16.145Z,38.15
2017-11-06T23:41:43.589Z,34.45
2017-11-06T23:44:11.029Z,33.35
2017-11-06T23:46:39.234Z,33.42
2017-11-06T23:49:06.673Z,39.05
2017-11-06T23:51:34.109Z,33.42
2017-11-06T23:54:01.642Z,34.28
2017-11-06T23:56:29.077Z,35.05
2017-11-06T23:58:56.544Z,34.05
